Time;durP1;ratioP1;P1;durP2;ratioP2;P2;SDS_P1;SDS_P2;PMS_P1;PMS_P2;Temp;Humidity;BMP_temperature;BMP_pressure;BME280_temperature;BME280_humidity;BME280_pressure;Samples;Min_cycle;Max_cycle;Signal;HPM_P1;HPM_P2
2022/03/29 00:00:07;;;;;;;414.27;187.18;;;;;;;11.78;62.43;99886.59;345299;28;1281;-69
2022/03/29 00:00:18;;;;;;;411.95;187.45;;;;;;;11.78;62.46;99891.00;343640;28;1013;-69
2022/03/29 00:00:28;;;;;;;412.93;186.33;;;;;;;11.78;62.55;99891.00;342705;28;2277;-69
2022/03/29 00:00:39;;;;;;;412.35;185.90;;;;;;;11.78;62.46;99885.75;341313;29;1083;-69
2022/03/29 00:00:49;;;;;;;414.53;187.70;;;;;;;11.76;62.61;99883.16;341292;29;885;-69
2022/03/29 00:01:00;;;;;;;413.67;185.90;;;;;;;11.77;62.61;99886.66;341173;28;1248;-69
2022/03/29 00:01:10;;;;;;;414.60;188.03;;;;;;;11.76;62.65;99887.56;343171;28;2019;-69
2022/03/29 00:01:20;;;;;;;415.67;192.75;;;;;;;11.73;62.52;99891.16;345334;28;1026;-69
2022/03/29 00:01:31;;;;;;;414.53;191.30;;;;;;;11.74;62.18;99884.13;341687;28;945;-69
2022/03/29 00:01:41;;;;;;;414.13;192.20;;;;;;;11.73;62.28;99885.06;339992;29;1288;-69
2022/03/29 00:01:51;;;;;;;414.02;190.55;;;;;;;11.72;62.60;99885.97;341239;29;1130;-69
2022/03/29 00:02:02;;;;;;;413.67;192.33;;;;;;;11.72;63.04;99886.81;341295;29;894;-69
2022/03/29 00:02:13;;;;;;;415.65;193.27;;;;;;;11.73;62.80;99887.69;341205;29;834;-69
2022/03/29 00:02:23;;;;;;;416.80;194.30;;;;;;;11.71;62.73;99889.50;341330;29;871;-69
2022/03/29 00:02:33;;;;;;;417.43;195.80;;;;;;;11.70;62.79;99885.22;339711;29;2116;-69
2022/03/29 00:02:44;;;;;;;414.77;190.03;;;;;;;11.69;62.89;99896.63;339718;29;1740;-69
2022/03/29 00:02:54;;;;;;;414.13;189.07;;;;;;;11.70;62.84;99882.59;342422;28;1997;-69
2022/03/29 00:03:07;;;;;;;414.63;186.07;;;;;;;11.70;62.86;99885.22;343962;28;1263;-70
2022/03/29 00:03:18;;;;;;;416.17;188.50;;;;;;;11.71;62.70;99886.88;344019;28;940;-70
2022/03/29 00:03:28;;;;;;;413.23;187.30;;;;;;;11.72;62.88;99893.84;343754;28;2153;-70
2022/03/29 00:03:38;;;;;;;412.30;189.47;;;;;;;11.72;62.94;99885.97;342643;28;2252;-70
2022/03/29 00:03:49;;;;;;;410.95;187.73;;;;;;;11.69;63.01;99886.97;342636;28;1391;-70
2022/03/29 00:03:59;;;;;;;411.23;188.73;;;;;;;11.69;62.75;99883.50;343991;28;961;-70
2022/03/29 00:04:10;;;;;;;411.63;189.02;;;;;;;11.71;62.80;99890.38;343910;28;893;-70
2022/03/29 00:04:20;;;;;;;413.37;192.97;;;;;;;11.73;62.81;99892.91;342712;28;884;-70
2022/03/29 00:04:30;;;;;;;415.73;195.80;;;;;;;11.73;62.56;99885.06;343673;28;1667;-70
2022/03/29 00:04:41;;;;;;;417.23;196.53;;;;;;;11.72;62.67;99880.72;343922;28;928;-70
2022/03/29 00:04:51;;;;;;;415.95;193.55;;;;;;;11.73;62.79;99890.31;342747;28;992;-70
2022/03/29 00:05:04;;;;;;;414.87;190.60;;;;;;;11.71;62.99;99879.88;342695;28;923;-70
2022/03/29 00:05:14;;;;;;;413.83;187.00;;;;;;;11.69;62.93;99888.75;338743;29;2601;-70
2022/03/29 00:05:26;;;;;;;414.83;188.30;;;;;;;11.69;62.96;99886.13;342548;28;1307;-70
2022/03/29 00:05:37;;;;;;;413.15;187.65;;;;;;;11.66;63.08;99887.97;341286;29;929;-70
2022/03/29 00:05:48;;;;;;;414.55;189.32;;;;;;;11.64;63.11;99889.78;343564;28;1109;-70
2022/03/29 00:05:58;;;;;;;413.10;190.48;;;;;;;11.62;63.20;99886.38;344040;28;974;-70
2022/03/29 00:06:08;;;;;;;413.67;190.07;;;;;;;11.61;63.04;99884.66;345202;28;1595;-70
2022/03/29 00:06:19;;;;;;;414.65;192.40;;;;;;;11.61;63.04;99884.66;344910;28;1937;-70
2022/03/29 00:06:29;;;;;;;415.30;192.90;;;;;;;11.59;63.21;99886.50;342305;28;2011;-70
2022/03/29 00:06:39;;;;;;;414.95;191.88;;;;;;;11.58;63.21;99884.78;341289;29;1286;-70
2022/03/29 00:06:50;;;;;;;415.20;189.27;;;;;;;11.58;63.18;99884.78;338644;29;907;-70
2022/03/29 00:07:00;;;;;;;415.75;190.70;;;;;;;11.58;62.99;99883.94;341302;29;914;-70
2022/03/29 00:07:11;;;;;;;414.87;192.90;;;;;;;11.58;62.76;99882.16;341288;29;1270;-70
2022/03/29 00:07:22;;;;;;;416.80;195.77;;;;;;;11.59;62.90;99881.25;343136;28;1469;-70
2022/03/29 00:07:33;;;;;;;417.95;195.27;;;;;;;11.58;63.04;99882.16;341267;29;922;-70
2022/03/29 00:07:44;;;;;;;414.85;188.52;;;;;;;11.58;62.77;99887.41;341049;29;1943;-71
2022/03/29 00:07:54;;;;;;;412.85;187.77;;;;;;;11.56;62.75;99885.78;345307;28;932;-70
2022/03/29 00:08:05;;;;;;;414.97;190.53;;;;;;;11.56;62.85;99880.53;345254;28;1329;-70
2022/03/29 00:08:15;;;;;;;414.35;188.60;;;;;;;11.57;62.62;99887.47;342477;28;951;-70
2022/03/29 00:08:26;;;;;;;413.87;184.50;;;;;;;11.54;62.81;99880.59;342642;28;1092;-70
2022/03/29 00:08:36;;;;;;;410.33;181.47;;;;;;;11.54;62.70;99893.69;343721;28;905;-70
2022/03/29 00:08:47;;;;;;;413.17;188.23;;;;;;;11.56;62.78;99883.16;343980;28;962;-70
2022/03/29 00:08:58;;;;;;;413.95;190.45;;;;;;;11.55;62.83;99884.06;342655;28;1036;-70
2022/03/29 00:09:08;;;;;;;414.85;187.40;;;;;;;11.56;62.98;99881.38;342528;28;1347;-70
2022/03/29 00:09:19;;;;;;;413.80;185.23;;;;;;;11.56;62.89;99886.63;342673;28;955;-70
2022/03/29 00:09:29;;;;;;;412.13;183.07;;;;;;;11.55;62.85;99884.91;339428;29;1967;-70
2022/03/29 00:09:40;;;;;;;413.48;188.50;;;;;;;11.55;62.90;99884.06;339650;29;1985;-70
2022/03/29 00:09:50;;;;;;;412.90;185.90;;;;;;;11.52;63.01;99885.03;342638;28;2535;-70
2022/03/29 00:10:07;;;;;;;414.30;186.75;;;;;;;11.51;63.15;99880.72;342165;28;2622;-70
2022/03/29 00:10:17;;;;;;;415.63;186.95;;;;;;;11.52;63.24;99884.19;342411;28;1207;-70
2022/03/29 00:10:28;;;;;;;414.87;189.67;;;;;;;11.52;63.12;99884.19;342485;28;1189;-70
2022/03/29 00:10:38;;;;;;;413.20;188.63;;;;;;;11.53;63.22;99884.13;342522;28;1455;-70
2022/03/29 00:10:49;;;;;;;410.30;185.43;;;;;;;11.53;63.04;99881.50;343852;28;1396;-70
2022/03/29 00:10:59;;;;;;;410.40;182.55;;;;;;;11.53;63.02;99883.28;344007;28;865;-70
2022/03/29 00:11:09;;;;;;;411.10;183.53;;;;;;;11.53;63.21;99881.50;342485;28;1570;-70
2022/03/29 00:11:20;;;;;;;415.43;184.37;;;;;;;11.53;63.07;99885.88;342227;28;1554;-70
2022/03/29 00:11:30;;;;;;;416.77;185.85;;;;;;;11.51;63.07;99888.56;340031;29;1966;-70
2022/03/29 00:11:41;;;;;;;414.63;184.47;;;;;;;11.52;62.70;99878.94;343907;28;1194;-70
2022/03/29 00:11:51;;;;;;;412.23;183.98;;;;;;;11.51;63.19;99885.94;343984;28;924;-70
2022/03/29 00:12:02;;;;;;;410.47;182.63;;;;;;;11.52;63.04;99889.44;342607;28;882;-70
2022/03/29 00:12:12;;;;;;;411.60;184.40;;;;;;;11.50;62.72;99881.63;341178;29;1990;-70
2022/03/29 00:12:23;;;;;;;411.10;182.93;;;;;;;11.50;62.85;99875.53;341051;29;2359;-70
2022/03/29 00:12:34;;;;;;;412.40;181.02;;;;;;;11.48;62.98;99878.22;342585;28;2075;-70
2022/03/29 00:12:44;;;;;;;411.88;179.88;;;;;;;11.47;62.92;99887.00;345213;28;1932;-70
2022/03/29 00:12:55;;;;;;;410.30;179.87;;;;;;;11.47;63.07;99883.50;345247;28;1211;-70
2022/03/29 00:13:06;;;;;;;412.40;188.10;;;;;;;11.46;63.07;99885.28;342577;28;1386;-70
2022/03/29 00:13:16;;;;;;;412.20;187.02;;;;;;;11.47;62.96;99881.75;341289;29;953;-70
2022/03/29 00:13:27;;;;;;;413.92;186.90;;;;;;;11.45;62.88;99878.34;341197;29;1209;-70
2022/03/29 00:13:37;;;;;;;412.55;180.45;;;;;;;11.45;63.18;99878.34;340040;29;830;-70
2022/03/29 00:13:47;;;;;;;415.47;185.83;;;;;;;11.44;63.23;99881.88;342587;28;862;-70
2022/03/29 00:13:58;;;;;;;414.87;184.47;;;;;;;11.39;63.16;99878.56;341100;29;1907;-70
2022/03/29 00:14:08;;;;;;;414.15;187.07;;;;;;;11.39;62.87;99883.81;341181;28;1358;-70
2022/03/29 00:14:19;;;;;;;412.25;182.60;;;;;;;11.40;63.25;99880.28;343936;28;906;-70
2022/03/29 00:14:29;;;;;;;409.87;183.10;;;;;;;11.38;63.10;99882.09;345067;28;1818;-71
2022/03/29 00:14:40;;;;;;;412.40;186.60;;;;;;;11.38;62.93;99882.09;343916;28;880;-70
2022/03/29 00:14:50;;;;;;;413.40;188.50;;;;;;;11.38;62.90;99876.88;343965;28;1910;-70
2022/03/29 00:15:05;;;;;;;416.77;189.27;;;;;;;11.34;63.09;99876.13;342576;28;1182;-70
2022/03/29 00:15:15;;;;;;;412.70;181.57;;;;;;;11.37;63.11;99885.66;339655;29;895;-70
2022/03/29 00:15:25;;;;;;;410.52;180.27;;;;;;;11.37;63.12;99880.41;341057;29;1234;-70
2022/03/29 00:15:36;;;;;;;409.00;177.93;;;;;;;11.37;63.30;99880.41;341166;28;1806;-70
2022/03/29 00:15:46;;;;;;;409.85;177.73;;;;;;;11.36;63.11;99875.22;341285;29;938;-70
2022/03/29 00:15:57;;;;;;;409.17;175.37;;;;;;;11.39;63.00;99882.97;341214;29;1211;-70
2022/03/29 00:16:07;;;;;;;407.77;173.83;;;;;;;11.41;63.06;99875.91;340994;28;2155;-70
2022/03/29 00:16:18;;;;;;;409.52;175.43;;;;;;;11.40;63.04;99882.91;345133;28;1752;-70
2022/03/29 00:16:28;;;;;;;413.05;181.20;;;;;;;11.42;63.16;99877.59;345331;28;974;-70
2022/03/29 00:16:39;;;;;;;415.53;186.37;;;;;;;11.43;63.11;99879.31;343889;28;1058;-70
2022/03/29 00:16:50;;;;;;;415.63;187.60;;;;;;;11.45;63.00;99883.56;343982;28;1099;-70
2022/03/29 00:17:00;;;;;;;414.48;184.85;;;;;;;11.43;62.84;99884.53;342948;28;1445;-70
2022/03/29 00:17:10;;;;;;;415.00;184.27;;;;;;;11.41;62.83;99878.50;341310;29;1044;-70
2022/03/29 00:17:21;;;;;;;413.63;183.00;;;;;;;11.41;62.88;99876.75;342555;28;1525;-70
2022/03/29 00:17:32;;;;;;;411.30;181.43;;;;;;;11.41;62.82;99882.00;344356;28;3838;-70
2022/03/29 00:17:42;;;;;;;411.58;181.40;;;;;;;11.41;62.93;99876.75;344802;28;1378;-70
2022/03/29 00:17:53;;;;;;;413.05;183.75;;;;;;;11.42;63.12;99881.06;342537;28;1211;-70
2022/03/29 00:18:03;;;;;;;409.53;183.37;;;;;;;11.43;62.87;99882.78;342701;28;958;-70
2022/03/29 00:18:13;;;;;;;408.85;181.27;;;;;;;11.43;62.99;99879.31;343863;28;860;-70
2022/03/29 00:18:24;;;;;;;409.43;181.23;;;;;;;11.44;62.91;99875.78;343831;28;1682;-70
2022/03/29 00:18:34;;;;;;;411.80;183.17;;;;;;;11.44;63.06;99879.25;342557;28;1326;-70
2022/03/29 00:18:45;;;;;;;411.63;186.80;;;;;;;11.43;63.11;99881.94;342658;28;881;-70
2022/03/29 00:18:55;;;;;;;410.47;185.07;;;;;;;11.43;62.96;99877.53;343971;28;912;-70
2022/03/29 00:19:06;;;;;;;409.77;185.65;;;;;;;11.43;63.13;99877.53;344937;28;2029;-70
2022/03/29 00:19:16;;;;;;;409.13;182.73;;;;;;;11.41;62.97;99870.66;345071;28;2655;-70
2022/03/29 00:19:26;;;;;;;411.85;182.70;;;;;;;11.42;62.88;99878.47;344081;28;1790;-69
2022/03/29 00:19:37;;;;;;;412.60;180.53;;;;;;;11.40;63.01;99875.03;343567;28;2742;-69
2022/03/29 00:19:47;;;;;;;411.83;181.57;;;;;;;11.40;63.07;99880.28;344992;28;2022;-69
2022/03/29 00:19:57;;;;;;;410.97;179.53;;;;;;;11.41;62.97;99878.50;342532;28;1979;-69
2022/03/29 00:20:08;;;;;;;412.13;180.55;;;;;;;11.40;62.69;99874.19;343615;28;1173;-69
2022/03/29 00:20:19;;;;;;;416.33;182.32;;;;;;;11.41;63.08;99876.75;342612;28;936;-69
2022/03/29 00:20:29;;;;;;;415.00;185.00;;;;;;;11.40;62.78;99879.44;343302;28;2032;-69
2022/03/29 00:20:40;;;;;;;413.38;185.43;;;;;;;11.40;62.88;99874.19;345140;28;2437;-69
2022/03/29 00:20:50;;;;;;;413.53;189.40;;;;;;;11.37;62.84;99876.94;343897;28;1162;-69
2022/03/29 00:21:00;;;;;;;412.50;185.80;;;;;;;11.39;62.85;99875.97;343938;28;1887;-69
2022/03/29 00:21:11;;;;;;;413.43;184.00;;;;;;;11.34;63.12;99875.28;342580;28;988;-69
2022/03/29 00:21:21;;;;;;;413.17;180.63;;;;;;;11.35;63.19;99871.75;342654;28;1387;-69
2022/03/29 00:21:32;;;;;;;411.40;176.80;;;;;;;11.34;63.22;99870.03;342606;28;878;-69
2022/03/29 00:21:42;;;;;;;410.65;174.52;;;;;;;11.34;63.12;99872.66;342522;28;1184;-69
2022/03/29 00:21:53;;;;;;;408.77;172.13;;;;;;;11.31;63.43;99871.00;342617;28;932;-69
2022/03/29 00:22:03;;;;;;;410.55;176.60;;;;;;;11.32;63.09;99877.09;343935;28;858;-69
2022/03/29 00:22:13;;;;;;;411.40;179.70;;;;;;;11.32;63.36;99871.88;342446;28;913;-69
2022/03/29 00:22:24;;;;;;;412.07;179.77;;;;;;;11.32;63.40;99880.59;343932;28;1435;-69
2022/03/29 00:22:35;;;;;;;412.98;182.20;;;;;;;11.32;63.28;99879.72;343218;28;2120;-69
2022/03/29 00:22:47;;;;;;;412.77;183.73;;;;;;;11.35;63.36;99877.00;343208;28;1788;-69
2022/03/29 00:22:57;;;;;;;411.90;187.30;;;;;;;11.33;63.12;99868.34;343994;28;971;-69
2022/03/29 00:23:08;;;;;;;411.35;183.10;;;;;;;11.32;63.18;99872.72;342506;28;1321;-69
2022/03/29 00:23:19;;;;;;;413.13;184.80;;;;;;;11.32;63.25;99872.72;342559;28;954;-69
2022/03/29 00:23:29;;;;;;;413.17;183.07;;;;;;;11.33;63.41;99878.81;343910;28;1693;-69
2022/03/29 00:23:40;;;;;;;410.98;181.02;;;;;;;11.37;63.29;99875.16;343968;28;1256;-69
2022/03/29 00:23:50;;;;;;;408.07;176.67;;;;;;;11.38;63.23;99876.88;342606;28;970;-69
2022/03/29 00:24:01;;;;;;;408.52;178.65;;;;;;;11.38;63.32;99870.78;345447;28;897;-69
2022/03/29 00:24:11;;;;;;;411.15;180.75;;;;;;;11.34;63.53;99873.50;343750;28;1339;-69
2022/03/29 00:24:22;;;;;;;413.23;182.97;;;;;;;11.32;63.44;99872.72;342394;28;1828;-69
2022/03/29 00:24:32;;;;;;;413.08;183.05;;;;;;;11.32;63.46;99871.88;344787;28;2470;-69
2022/03/29 00:24:43;;;;;;;410.23;182.40;;;;;;;11.31;63.65;99875.41;343837;28;1382;-69
2022/03/29 00:24:53;;;;;;;408.50;181.07;;;;;;;11.31;63.60;99875.41;345279;28;944;-69
2022/03/29 00:25:04;;;;;;;409.65;182.27;;;;;;;11.30;63.66;99871.06;345289;28;1024;-70
2022/03/29 00:25:15;;;;;;;411.05;181.45;;;;;;;11.31;63.58;99875.41;345200;28;1290;-70
2022/03/29 00:25:26;;;;;;;412.30;180.63;;;;;;;11.32;63.55;99874.50;339759;28;1488;-70
2022/03/29 00:25:36;;;;;;;412.23;177.85;;;;;;;11.34;63.36;99870.03;343656;28;1497;-70
2022/03/29 00:25:46;;;;;;;411.23;181.80;;;;;;;11.35;63.59;99874.38;343988;28;929;-70
2022/03/29 00:25:57;;;;;;;406.92;178.05;;;;;;;11.35;63.37;99869.13;342528;28;1377;-70
2022/03/29 00:26:07;;;;;;;404.43;176.60;;;;;;;11.35;63.62;99869.13;342504;28;2118;-70
2022/03/29 00:26:18;;;;;;;408.40;176.80;;;;;;;11.37;63.57;99872.53;342283;28;2089;-70
2022/03/29 00:26:29;;;;;;;412.87;182.40;;;;;;;11.37;63.37;99879.53;341295;29;1268;-70
2022/03/29 00:26:39;;;;;;;413.58;181.75;;;;;;;11.34;63.45;99876.13;342406;28;1502;-70
2022/03/29 00:26:49;;;;;;;411.08;180.52;;;;;;;11.36;63.58;99872.59;344019;28;928;-70
2022/03/29 00:27:00;;;;;;;409.70;180.10;;;;;;;11.36;63.47;99870.84;343896;28;1502;-70
2022/03/29 00:27:11;;;;;;;407.92;180.65;;;;;;;11.37;63.86;99875.16;342227;28;2271;-70
2022/03/29 00:27:21;;;;;;;408.38;179.68;;;;;;;11.36;63.99;99872.59;342569;28;1298;-70
2022/03/29 00:27:34;;;;;;;410.87;185.40;;;;;;;11.37;63.55;99879.53;345230;28;1196;-70
2022/03/29 00:27:45;;;;;;;412.45;184.80;;;;;;;11.34;63.64;99875.28;343144;28;1580;-70
2022/03/29 00:27:55;;;;;;;413.98;181.68;;;;;;;11.34;63.96;99865.66;342274;28;1794;-70
2022/03/29 00:28:06;;;;;;;411.07;179.33;;;;;;;11.36;63.87;99870.84;342569;28;865;-70
2022/03/29 00:28:16;;;;;;;409.90;178.57;;;;;;;11.38;63.57;99870.78;341216;29;936;-70
2022/03/29 00:28:26;;;;;;;409.37;178.67;;;;;;;11.36;63.80;99873.47;341292;28;943;-70
2022/03/29 00:28:37;;;;;;;411.10;179.05;;;;;;;11.35;63.95;99863.88;341122;28;2182;-70
2022/03/29 00:28:47;;;;;;;412.00;184.60;;;;;;;11.34;64.15;99870.03;341311;29;849;-70
2022/03/29 00:28:58;;;;;;;412.73;186.10;;;;;;;11.35;63.85;99869.13;341209;29;1307;-70
2022/03/29 00:29:08;;;;;;;413.13;186.90;;;;;;;11.37;64.04;99874.31;340195;29;2076;-70
2022/03/29 00:29:19;;;;;;;413.45;181.82;;;;;;;11.38;63.98;99870.78;342099;28;2599;-70
2022/03/29 00:29:29;;;;;;;413.47;180.67;;;;;;;11.36;63.92;99872.59;341653;28;1326;-70
2022/03/29 00:29:40;;;;;;;414.10;178.23;;;;;;;11.38;64.06;99876.00;342217;28;1968;-70
2022/03/29 00:29:50;;;;;;;411.77;179.20;;;;;;;11.38;64.08;99870.78;342535;28;1192;-70
2022/03/29 00:30:02;;;;;;;410.63;179.80;;;;;;;11.39;63.92;99877.72;342505;28;1457;-70
2022/03/29 00:30:15;;;;;;;409.92;182.32;;;;;;;11.39;64.32;99868.09;344565;28;1459;-70
2022/03/29 00:30:25;;;;;;;408.88;180.52;;;;;;;11.37;64.15;99872.53;342550;28;1063;-70
2022/03/29 00:30:35;;;;;;;410.08;179.45;;;;;;;11.37;63.98;99866.44;339914;29;906;-70
2022/03/29 00:30:46;;;;;;;408.20;176.47;;;;;;;11.35;64.18;99869.13;341165;28;1279;-70
2022/03/29 00:30:56;;;;;;;411.20;176.27;;;;;;;11.33;64.16;99865.72;341190;29;1343;-70
2022/03/29 00:31:07;;;;;;;411.40;184.00;;;;;;;11.32;63.99;99866.63;342897;28;1903;-70
2022/03/29 00:31:19;;;;;;;412.58;186.13;;;;;;;11.31;64.37;99870.16;341456;28;1906;-70
2022/03/29 00:31:29;;;;;;;410.48;185.00;;;;;;;11.31;64.05;99870.16;345340;28;857;-70
2022/03/29 00:31:40;;;;;;;411.17;180.75;;;;;;;11.33;64.10;99873.56;345150;28;1319;-70
2022/03/29 00:31:50;;;;;;;411.73;182.80;;;;;;;11.33;64.26;99868.34;343066;28;1619;-70
2022/03/29 00:32:00;;;;;;;414.47;187.67;;;;;;;11.34;64.02;99870.03;343963;28;889;-70
2022/03/29 00:32:11;;;;;;;413.27;190.23;;;;;;;11.31;64.31;99871.00;343748;28;1321;-70
2022/03/29 00:32:21;;;;;;;413.43;189.20;;;;;;;11.33;63.87;99876.19;345261;28;844;-70
2022/03/29 00:32:32;;;;;;;411.15;185.07;;;;;;;11.30;63.94;99869.31;346547;28;1404;-70
2022/03/29 00:32:43;;;;;;;412.20;182.77;;;;;;;11.30;63.96;99868.44;342585;28;2180;-70
2022/03/29 00:32:54;;;;;;;412.40;181.32;;;;;;;11.30;63.81;99869.31;340080;28;1483;-70
2022/03/29 00:33:04;;;;;;;414.23;180.67;;;;;;;11.31;63.89;99870.16;342628;28;1340;-70
2022/03/29 00:33:14;;;;;;;411.73;180.35;;;;;;;11.29;63.72;99872.84;342582;28;1432;-70
2022/03/29 00:33:25;;;;;;;410.50;180.63;;;;;;;11.29;63.68;99866.75;343936;28;1549;-70
2022/03/29 00:33:36;;;;;;;408.08;178.60;;;;;;;11.30;63.97;99869.31;343779;28;1272;-70
2022/03/29 00:33:47;;;;;;;408.95;180.70;;;;;;;11.29;63.99;99869.38;343951;28;989;-70
2022/03/29 00:33:57;;;;;;;411.75;182.77;;;;;;;11.29;63.86;99875.47;345138;28;1918;-70
2022/03/29 00:34:07;;;;;;;412.67;183.23;;;;;;;11.26;63.61;99872.97;344725;28;1821;-70
2022/03/29 00:34:18;;;;;;;413.15;180.82;;;;;;;11.25;63.77;99875.69;341499;28;1390;-70
2022/03/29 00:34:28;;;;;;;411.93;181.33;;;;;;;11.26;63.99;99872.16;341274;29;931;-70
2022/03/29 00:34:40;;;;;;;412.85;185.15;;;;;;;11.26;63.92;99869.53;340343;29;1481;-70
2022/03/29 00:34:50;;;;;;;408.70;182.75;;;;;;;11.27;64.15;99865.94;341317;28;1988;-70
2022/03/29 00:35:01;;;;;;;407.98;182.10;;;;;;;11.25;63.78;99878.28;342579;28;885;-70
2022/03/29 00:35:11;;;;;;;407.13;176.70;;;;;;;11.25;64.41;99875.69;343752;28;1362;-70
2022/03/29 00:35:24;;;;;;;407.27;174.55;;;;;;;11.26;64.13;99872.16;343840;28;2284;-70
2022/03/29 00:35:34;;;;;;;407.35;174.40;;;;;;;11.27;63.91;99872.06;342504;28;1089;-70
2022/03/29 00:35:45;;;;;;;409.70;181.27;;;;;;;11.28;64.06;99872.91;341190;28;894;-70
2022/03/29 00:35:55;;;;;;;412.17;187.57;;;;;;;11.25;63.97;99867.81;342629;28;854;-70
2022/03/29 00:36:05;;;;;;;412.58;186.07;;;;;;;11.26;63.93;99866.91;342586;28;1010;-70
2022/03/29 00:36:16;;;;;;;411.57;183.10;;;;;;;11.27;63.91;99868.56;342376;28;1547;-70
2022/03/29 00:36:28;;;;;;;411.65;177.90;;;;;;;11.27;64.08;99868.56;341165;28;1686;-70
2022/03/29 00:36:38;;;;;;;411.23;175.70;;;;;;;11.29;63.69;99872.00;341236;29;857;-70
2022/03/29 00:36:49;;;;;;;411.87;177.93;;;;;;;11.28;64.14;99870.28;342537;28;954;-70
2022/03/29 00:36:59;;;;;;;409.60;179.45;;;;;;;11.26;63.98;99866.91;342575;28;1330;-70
2022/03/29 00:37:10;;;;;;;409.60;180.38;;;;;;;11.24;64.09;99869.59;342606;28;882;-70
2022/03/29 00:37:20;;;;;;;412.27;184.53;;;;;;;11.25;64.18;99870.44;342600;28;981;-70
2022/03/29 00:37:31;;;;;;;410.90;180.13;;;;;;;11.22;64.17;99874.03;342617;28;909;-70
2022/03/29 00:37:42;;;;;;;410.73;178.57;;;;;;;11.21;64.13;99872.31;342795;28;2104;-70
2022/03/29 00:37:53;;;;;;;412.42;173.35;;;;;;;11.21;63.91;99864.47;342973;28;1687;-70
2022/03/29 00:38:04;;;;;;;410.88;176.27;;;;;;;11.18;64.01;99868.97;341195;29;1420;-70
2022/03/29 00:38:14;;;;;;;410.77;177.30;;;;;;;11.14;64.08;99865.63;341160;29;914;-70
2022/03/29 00:38:25;;;;;;;409.05;180.82;;;;;;;11.13;64.34;99873.53;341300;29;1138;-71
2022/03/29 00:38:35;;;;;;;410.27;181.83;;;;;;;11.14;64.14;99872.63;343965;28;1058;-70
2022/03/29 00:38:48;;;;;;;410.23;186.43;;;;;;;11.13;64.15;99868.28;343932;28;847;-70
2022/03/29 00:38:59;;;;;;;414.00;188.15;;;;;;;11.15;64.22;99863.84;344895;28;1163;-70
2022/03/29 00:39:10;;;;;;;415.77;186.40;;;;;;;11.15;63.97;99874.31;345175;28;1334;-70
2022/03/29 00:39:20;;;;;;;413.60;180.18;;;;;;;11.16;64.03;99876.03;344561;28;2155;-70
2022/03/29 00:39:30;;;;;;;409.70;178.50;;;;;;;11.14;64.16;99878.72;342576;28;916;-70
2022/03/29 00:39:41;;;;;;;410.25;179.48;;;;;;;11.13;64.05;99871.75;343809;28;1166;-70
2022/03/29 00:39:51;;;;;;;410.07;182.13;;;;;;;11.14;64.49;99867.38;343946;28;1034;-70
2022/03/29 00:40:02;;;;;;;408.40;177.37;;;;;;;11.17;64.23;99867.25;341185;28;1180;-70
2022/03/29 00:40:13;;;;;;;406.50;174.40;;;;;;;11.16;64.16;99868.16;341214;29;950;-70
2022/03/29 00:40:23;;;;;;;407.02;174.68;;;;;;;11.16;64.06;99873.41;339917;29;972;-70
2022/03/29 00:40:33;;;;;;;409.67;180.27;;;;;;;11.12;64.22;99877.06;341160;29;1074;-70
2022/03/29 00:40:44;;;;;;;412.73;186.27;;;;;;;11.10;64.13;99873.66;341280;29;904;-70
2022/03/29 00:40:55;;;;;;;412.67;186.52;;;;;;;11.10;64.26;99871.03;342588;28;983;-70
2022/03/29 00:41:05;;;;;;;412.27;187.27;;;;;;;11.10;64.17;99869.25;342637;28;1000;-70
2022/03/29 00:41:16;;;;;;;412.10;183.15;;;;;;;11.09;64.59;99870.16;342184;28;1964;-70
2022/03/29 00:41:26;;;;;;;411.47;182.53;;;;;;;11.08;64.47;99867.59;342741;28;2006;-70
2022/03/29 00:41:37;;;;;;;411.00;179.82;;;;;;;11.07;64.47;99872.00;338661;29;1806;-70
2022/03/29 00:41:47;;;;;;;411.75;178.57;;;;;;;11.06;64.64;99866.81;338623;29;865;-70
2022/03/29 00:41:57;;;;;;;412.03;175.33;;;;;;;11.06;64.48;99870.28;341351;28;921;-70
2022/03/29 00:42:08;;;;;;;410.73;175.60;;;;;;;11.06;64.42;99864.19;342394;28;1175;-69
2022/03/29 00:42:18;;;;;;;410.13;180.18;;;;;;;11.06;64.15;99869.44;343881;28;885;-69
2022/03/29 00:42:29;;;;;;;411.67;185.57;;;;;;;11.07;64.50;99863.28;342598;28;869;-69
2022/03/29 00:42:40;;;;;;;410.80;183.65;;;;;;;11.06;64.33;99872.06;341670;28;1459;-69
2022/03/29 00:42:50;;;;;;;410.17;180.67;;;;;;;11.09;64.36;99871.94;345285;28;1173;-69
2022/03/29 00:43:01;;;;;;;408.80;180.43;;;;;;;11.10;64.24;99873.66;344153;28;1248;-69
2022/03/29 00:43:12;;;;;;;410.10;182.87;;;;;;;11.08;64.32;99867.59;343672;28;2148;-69
2022/03/29 00:43:23;;;;;;;411.40;180.35;;;;;;;11.07;64.40;99865.91;339652;29;2248;-69
2022/03/29 00:43:34;;;;;;;412.25;178.55;;;;;;;11.08;64.23;99867.59;342322;28;2016;-69
2022/03/29 00:43:44;;;;;;;413.30;177.47;;;;;;;11.10;64.13;99865.78;341862;28;2239;-69
2022/03/29 00:43:55;;;;;;;411.88;180.13;;;;;;;11.10;64.63;99868.41;342656;28;1991;-69
2022/03/29 00:44:06;;;;;;;412.60;185.80;;;;;;;11.08;64.17;99858.00;344587;28;1230;-69
2022/03/29 00:44:17;;;;;;;414.20;190.13;;;;;;;11.10;64.10;99868.41;343723;28;2176;-69
2022/03/29 00:44:34;;;;;;;411.73;186.07;;;;;;;11.10;64.38;99863.16;341102;29;2074;-70
2022/03/29 00:44:45;;;;;;;412.45;178.23;;;;;;;11.07;64.28;99866.75;345120;28;1122;-70
2022/03/29 00:44:55;;;;;;;413.48;178.38;;;;;;;11.07;64.28;99871.16;342666;28;810;-70
2022/03/29 00:45:06;;;;;;;413.73;178.17;;;;;;;11.08;64.17;99873.69;345317;28;884;-70
2022/03/29 00:45:17;;;;;;;412.48;179.70;;;;;;;11.07;64.23;99865.91;342310;28;1284;-70
2022/03/29 00:45:27;;;;;;;412.02;181.73;;;;;;;11.06;64.42;99866.81;343780;28;1317;-70
2022/03/29 00:45:38;;;;;;;413.17;183.13;;;;;;;11.05;64.02;99862.50;346546;28;859;-70
2022/03/29 00:45:48;;;;;;;414.23;182.80;;;;;;;11.00;64.54;99863.53;347966;28;928;-70
2022/03/29 00:45:58;;;;;;;413.07;181.23;;;;;;;10.98;64.31;99865.34;345230;28;1223;-70
2022/03/29 00:46:09;;;;;;;411.00;179.50;;;;;;;10.97;64.59;99865.41;342590;28;2338;-70
2022/03/29 00:46:20;;;;;;;410.43;180.93;;;;;;;10.96;64.55;99864.53;343507;28;1812;-70
2022/03/29 00:46:30;;;;;;;411.30;180.75;;;;;;;10.95;64.77;99862.84;340718;29;2050;-70
2022/03/29 00:46:41;;;;;;;409.80;178.90;;;;;;;10.98;64.46;99865.34;342551;28;2230;-70
2022/03/29 00:46:51;;;;;;;409.70;178.47;;;;;;;10.97;64.73;99863.63;341202;29;968;-70
2022/03/29 00:47:02;;;;;;;408.27;178.27;;;;;;;10.97;64.63;99863.63;343408;28;1672;-70
2022/03/29 00:47:12;;;;;;;409.33;181.07;;;;;;;10.96;64.46;99867.16;342655;28;837;-70
2022/03/29 00:47:23;;;;;;;411.98;181.00;;;;;;;10.96;64.70;99861.94;341135;29;1395;-70
2022/03/29 00:47:33;;;;;;;415.10;186.55;;;;;;;10.95;64.73;99857.59;342364;28;2191;-69
2022/03/29 00:47:44;;;;;;;414.60;181.53;;;;;;;10.99;64.65;99863.56;345212;28;1439;-69
2022/03/29 00:47:54;;;;;;;414.65;182.13;;;;;;;11.01;64.34;99861.75;344493;28;1708;-68
2022/03/29 00:48:07;;;;;;;412.60;176.67;;;;;;;11.00;64.70;99860.91;342672;28;982;-70
2022/03/29 00:48:18;;;;;;;411.77;178.57;;;;;;;11.03;64.37;99859.06;343780;28;1295;-70
2022/03/29 00:48:28;;;;;;;409.38;173.10;;;;;;;11.04;64.48;99866.03;346123;28;2226;-70
2022/03/29 00:48:39;;;;;;;410.33;174.80;;;;;;;11.05;64.29;99859.88;345206;28;1061;-70
2022/03/29 00:48:49;;;;;;;409.83;176.65;;;;;;;11.06;64.38;99853.72;343888;28;960;-70
2022/03/29 00:49:00;;;;;;;408.53;178.80;;;;;;;11.06;64.54;99859.81;340620;28;1387;-69
2022/03/29 00:49:10;;;;;;;409.20;178.88;;;;;;;11.06;64.49;99861.56;342556;28;1423;-69